Minneapolis, Minnesota
Traffic Map
Current Weather Conditions
Minneapolis, Minnesota
Few Clouds
Few Clouds
70°
Feels Like: 70°
Wind Chill: 70° Ceiling: Unl
Heat Index: 70° Visibility: 10mi
Dew Point: 58° Wind: 13mph
Humidity: 65% Direction: 290° (WNW)
Pressure: 29.81in Gusts: 0mph
Raw Report DataKMSP 201553Z 29011KT 10SM FEW020 FEW250 21/14 A2981 RMK AO2 SLP089 T02110144
Traffic Incident Summary
Active as of:
Severity:
Category:
InformationThere was an issue retrieving the traffic information for this location. Please try a different location or try again shortly.
Advertisements
Track Severe Weather on mobile